Time;durP1;ratioP1;P1;durP2;ratioP2;P2;SDS_P1;SDS_P2;PMS_P1;PMS_P2;Temp;Humidity;BMP_temperature;BMP_pressure;BME280_temperature;BME280_humidity;BME280_pressure;Samples;Min_cycle;Max_cycle;Signal;HPM_P1;HPM_P2
2023/04/14 00:00:19;;;;;;;4.78;1.15;;;22.90;66.30;;;;;;5199438;22;20016;-76
2023/04/14 00:02:42;;;;;;;5.20;1.20;;;22.90;66.00;;;;;;5196042;22;20090;-86
2023/04/14 00:05:05;;;;;;;6.80;1.45;;;22.90;66.00;;;;;;5216322;22;20050;-68
2023/04/14 00:07:27;;;;;;;2.65;0.75;;;22.90;66.00;;;;;;5224719;22;20073;-65
2023/04/14 00:09:49;;;;;;;0.60;0.50;;;22.90;66.10;;;;;;5224303;22;20031;-70
2023/04/14 00:12:12;;;;;;;3.75;0.90;;;22.90;66.00;;;;;;5223180;22;20019;-68
2023/04/14 00:14:34;;;;;;;7.85;1.17;;;22.90;66.20;;;;;;5223837;22;20343;-68
2023/04/14 00:16:57;;;;;;;6.05;1.25;;;22.90;66.20;;;;;;5192075;22;20011;-70
2023/04/14 00:19:19;;;;;;;1.75;0.60;;;23.00;66.30;;;;;;5192130;22;20538;-70
2023/04/14 00:21:42;;;;;;;0.93;0.60;;;23.00;66.30;;;;;;5225058;22;20011;-76
2023/04/14 00:24:04;;;;;;;3.72;0.70;;;23.00;66.40;;;;;;5190313;22;20012;-71
2023/04/14 00:26:27;;;;;;;3.45;1.05;;;23.00;66.20;;;;;;5189744;22;20094;-75
2023/04/14 00:28:49;;;;;;;7.80;1.50;;;23.00;66.20;;;;;;5224895;22;20018;-78
2023/04/14 00:31:12;;;;;;;2.40;0.90;;;23.00;66.10;;;;;;5220326;22;20034;-74
2023/04/14 00:33:36;;;;;;;5.15;0.80;;;23.00;66.30;;;;;;5191141;22;20027;-80
2023/04/14 00:35:59;;;;;;;3.38;0.73;;;23.00;66.10;;;;;;5221590;22;20471;-74
2023/04/14 00:38:21;;;;;;;1.83;0.80;;;23.00;66.20;;;;;;5222089;22;20093;-72
2023/04/14 00:40:44;;;;;;;3.60;0.93;;;23.00;66.10;;;;;;5219144;22;20011;-76
2023/04/14 00:43:06;;;;;;;1.60;0.65;;;23.00;66.10;;;;;;5190769;22;20411;-78
2023/04/14 00:45:29;;;;;;;2.70;1.02;;;23.00;66.10;;;;;;5221345;22;20014;-78
2023/04/14 00:47:51;;;;;;;3.58;0.80;;;23.00;66.00;;;;;;5221496;22;20666;-83
2023/04/14 00:50:16;;;;;;;3.25;0.68;;;23.00;66.00;;;;;;5223168;22;20029;-79
2023/04/14 00:52:41;;;;;;;3.92;1.25;;;23.00;66.00;;;;;;5222994;22;20346;-82
2023/04/14 00:55:05;;;;;;;2.63;0.80;;;23.10;66.10;;;;;;5222755;22;20017;-81
2023/04/14 00:57:28;;;;;;;3.28;1.10;;;23.10;66.00;;;;;;5222434;22;20043;-78
2023/04/14 00:59:51;;;;;;;5.93;1.05;;;23.10;65.90;;;;;;5223164;22;20101;-81
2023/04/14 01:02:14;;;;;;;7.27;1.57;;;23.10;66.00;;;;;;5223944;22;20011;-69
2023/04/14 01:04:36;;;;;;;5.78;1.60;;;23.10;66.20;;;;;;5207641;22;20020;-48
2023/04/14 01:06:59;;;;;;;5.80;1.00;;;23.10;66.10;;;;;;5195659;22;20018;-46
2023/04/14 01:09:21;;;;;;;1.52;0.80;;;23.10;66.10;;;;;;5184988;22;20272;-46
2023/04/14 01:12:17;;;;;;;8.95;1.05;;;23.10;66.20;;;;;;5194648;22;20019;-51
2023/04/14 01:14:58;;;;;;;1.60;0.70;;;23.10;66.20;;;;;;5185458;22;20181;-54
2023/04/14 01:17:40;;;;;;;4.57;1.27;;;23.10;66.40;;;;;;5193380;22;20046;-44
2023/04/14 01:20:32;;;;;;;2.30;0.80;;;23.10;66.40;;;;;;5187687;22;20038;-48
2023/04/14 01:23:19;;;;;;;1.20;0.93;;;23.10;66.10;;;;;;5195628;22;20027;-47
2023/04/14 01:26:02;;;;;;;5.00;1.15;;;23.10;66.10;;;;;;5186462;22;20054;-47
2023/04/14 01:28:55;;;;;;;2.33;1.08;;;23.00;66.20;;;;;;5194090;22;20094;-54
2023/04/14 01:31:21;;;;;;;2.30;0.80;;;23.10;66.30;;;;;;5194629;22;20410;-53
2023/04/14 01:33:46;;;;;;;2.40;0.75;;;23.20;66.30;;;;;;5195841;22;20022;-51
2023/04/14 01:36:21;;;;;;;2.38;0.85;;;23.20;66.20;;;;;;5170130;22;20085;-85
2023/04/14 01:39:05;;;;;;;4.18;1.20;;;23.20;66.30;;;;;;5138641;23;20068;-79
2023/04/14 01:41:32;;;;;;;4.40;1.15;;;23.20;66.20;;;;;;5128665;23;20016;-77
2023/04/14 01:43:55;;;;;;;3.25;0.82;;;23.20;66.20;;;;;;5141285;22;20118;-71
2023/04/14 01:46:21;;;;;;;2.58;1.02;;;23.20;66.20;;;;;;5140038;23;20013;-71
2023/04/14 01:48:44;;;;;;;1.73;0.80;;;23.20;66.20;;;;;;5171264;23;20008;-75
2023/04/14 01:51:08;;;;;;;1.43;0.90;;;23.20;65.60;;;;;;5172071;23;20051;-76
2023/04/14 01:53:35;;;;;;;4.00;1.33;;;23.20;65.50;;;;;;5171760;23;20022;-75
2023/04/14 01:56:00;;;;;;;3.65;0.98;;;23.20;65.30;;;;;;5142943;23;20083;-75
2023/04/14 01:58:24;;;;;;;1.00;0.75;;;23.20;64.90;;;;;;5175591;23;20035;-75
2023/04/14 02:00:48;;;;;;;3.80;0.80;;;23.20;64.70;;;;;;5173175;23;20020;-75
2023/04/14 02:03:12;;;;;;;0.80;0.45;;;23.10;64.70;;;;;;5145282;22;20114;-74
2023/04/14 02:05:36;;;;;;;;;;;23.10;64.70;;;;;;5176045;22;20348;-76
2023/04/14 02:08:00;;;;;;;2.58;1.00;;;23.00;64.70;;;;;;5172020;23;19907;-75
2023/04/14 02:10:24;;;;;;;2.35;1.15;;;23.00;64.60;;;;;;5175168;22;20020;-78
2023/04/14 02:12:48;;;;;;;1.88;0.60;;;23.00;64.60;;;;;;5174798;23;20285;-77
2023/04/14 02:15:16;;;;;;;1.45;0.88;;;23.00;64.60;;;;;;5175220;23;20099;-79
2023/04/14 02:17:39;;;;;;;0.57;0.40;;;23.00;64.70;;;;;;5176943;22;20008;-77
2023/04/14 02:20:06;;;;;;;5.03;1.70;;;23.00;64.70;;;;;;5146035;23;20104;-79
2023/04/14 02:22:29;;;;;;;2.53;1.05;;;23.00;64.70;;;;;;5146677;23;20013;-83
2023/04/14 02:25:06;;;;;;;1.38;0.60;;;22.90;64.70;;;;;;5175503;23;20020;-84
2023/04/14 02:27:47;;;;;;;2.03;0.80;;;22.90;65.00;;;;;;5174357;23;20023;-84
2023/04/14 02:30:17;;;;;;;2.55;1.00;;;23.00;65.00;;;;;;5177394;22;20027;-77
2023/04/14 02:32:44;;;;;;;2.42;0.82;;;23.00;65.30;;;;;;5175553;22;20043;-78
2023/04/14 02:35:25;;;;;;;2.05;0.80;;;23.00;65.40;;;;;;5172907;23;20015;-73
2023/04/14 02:38:31;;;;;;;1.15;0.50;;;23.00;65.00;;;;;;5175503;22;20024;-74
2023/04/14 02:40:56;;;;;;;1.55;0.80;;;23.00;64.90;;;;;;5141487;23;20619;-71
2023/04/14 02:43:30;;;;;;;0.95;0.60;;;23.00;64.80;;;;;;5173964;22;20016;-71
2023/04/14 02:45:55;;;;;;;6.45;0.90;;;23.00;64.80;;;;;;5173676;22;20012;-73
2023/04/14 02:48:20;;;;;;;3.03;0.65;;;23.00;64.90;;;;;;5173566;22;20023;-72
2023/04/14 02:50:46;;;;;;;1.33;0.70;;;23.00;64.90;;;;;;5172385;23;20028;-72
2023/04/14 02:53:10;;;;;;;1.42;0.80;;;23.00;64.90;;;;;;5173387;22;20019;-71
2023/04/14 02:55:33;;;;;;;2.10;0.77;;;23.00;64.90;;;;;;5128691;23;20091;-72
2023/04/14 02:57:56;;;;;;;3.13;0.98;;;23.00;64.90;;;;;;5141963;23;20052;-72
2023/04/14 03:00:44;;;;;;;1.55;0.73;;;23.00;64.90;;;;;;5142829;23;20421;-72
2023/04/14 03:03:06;;;;;;;3.20;0.70;;;23.00;64.90;;;;;;5165264;22;20042;-72
2023/04/14 03:05:31;;;;;;;2.92;0.93;;;23.00;64.90;;;;;;5132490;23;20012;-72
2023/04/14 03:07:59;;;;;;;2.03;0.90;;;23.00;65.30;;;;;;5139669;23;20240;-77
2023/04/14 03:10:25;;;;;;;2.70;1.02;;;23.00;65.30;;;;;;5158396;23;20038;-76
2023/04/14 03:12:49;;;;;;;1.88;1.00;;;23.00;65.50;;;;;;5139526;23;20070;-75
2023/04/14 03:15:12;;;;;;;6.70;1.15;;;23.00;65.50;;;;;;5147829;23;20042;-74
2023/04/14 03:17:36;;;;;;;2.80;0.90;;;23.00;65.50;;;;;;5173004;22;20332;-75
2023/04/14 03:20:00;;;;;;;2.30;0.90;;;23.00;65.50;;;;;;5141711;23;20024;-75
2023/04/14 03:22:25;;;;;;;2.33;1.13;;;23.00;65.50;;;;;;5173109;22;20098;-75
2023/04/14 03:24:49;;;;;;;1.83;0.85;;;23.00;65.50;;;;;;5140272;23;20013;-75
2023/04/14 03:27:25;;;;;;;3.08;1.00;;;23.00;65.50;;;;;;5162817;23;20034;-75
2023/04/14 03:29:51;;;;;;;9.57;1.42;;;23.00;65.50;;;;;;5176467;23;20020;-75
2023/04/14 03:32:16;;;;;;;4.63;1.23;;;23.10;65.80;;;;;;5144965;23;20536;-77
2023/04/14 03:34:41;;;;;;;2.60;0.90;;;23.10;65.90;;;;;;5173004;22;20035;-73
2023/04/14 03:37:05;;;;;;;1.65;0.70;;;23.20;66.10;;;;;;5138233;23;20025;-75
2023/04/14 03:39:31;;;;;;;2.15;0.98;;;23.20;66.00;;;;;;5172829;23;20513;-76
2023/04/14 03:41:56;;;;;;;4.53;1.00;;;23.30;66.00;;;;;;5171119;23;20012;-73
2023/04/14 03:44:20;;;;;;;2.97;0.80;;;23.30;65.80;;;;;;5174639;22;20012;-73
2023/04/14 03:46:42;;;;;;;2.05;0.75;;;23.40;65.60;;;;;;5143080;23;20515;-73
2023/04/14 03:49:16;;;;;;;3.83;1.00;;;23.40;65.40;;;;;;5143860;23;20023;-78
2023/04/14 03:51:41;;;;;;;15.90;2.67;;;23.40;66.60;;;;;;5146109;23;20051;-87
2023/04/14 03:54:05;;;;;;;14.32;1.50;;;23.40;67.80;;;;;;5146901;23;20043;-85
2023/04/14 03:56:30;;;;;;;14.80;2.20;;;23.50;67.50;;;;;;5176603;23;20016;-82
2023/04/14 03:58:55;;;;;;;12.68;2.45;;;23.50;67.50;;;;;;5178672;22;20015;-82
2023/04/14 04:01:18;;;;;;;17.67;2.03;;;23.50;67.50;;;;;;5147539;23;20107;-81
2023/04/14 04:03:42;;;;;;;9.77;1.75;;;23.60;67.60;;;;;;5181321;22;20012;-87
2023/04/14 04:06:06;;;;;;;15.82;2.70;;;23.60;67.50;;;;;;5183602;23;20091;-88
2023/04/14 04:08:33;;;;;;;6.22;1.45;;;23.70;67.40;;;;;;5149501;23;20035;-81
2023/04/14 04:10:56;;;;;;;4.20;1.33;;;23.80;67.20;;;;;;5173845;23;20028;-81
2023/04/14 04:13:20;;;;;;;3.38;1.02;;;23.80;67.00;;;;;;5178389;23;20070;-80
2023/04/14 04:15:43;;;;;;;;;;;23.90;66.90;;;;;;5152018;23;20504;-81
2023/04/14 04:18:07;;;;;;;2.53;0.85;;;24.00;66.70;;;;;;5188383;23;19908;-80
2023/04/14 04:20:32;;;;;;;3.78;1.02;;;24.10;66.50;;;;;;5188394;22;20008;-79
2023/04/14 04:22:57;;;;;;;2.08;0.52;;;24.20;66.20;;;;;;5164416;23;20068;-81
2023/04/14 04:25:19;;;;;;;3.67;1.20;;;24.20;65.90;;;;;;5186134;22;20012;-85
2023/04/14 04:27:42;;;;;;;3.40;1.20;;;24.40;65.70;;;;;;5154862;23;20044;-82
2023/04/14 04:30:10;;;;;;;2.00;0.70;;;24.40;65.30;;;;;;5182700;22;20037;-85
2023/04/14 04:32:33;;;;;;;1.88;0.60;;;24.40;65.10;;;;;;5181796;22;20016;-82
2023/04/14 04:34:56;;;;;;;0.95;0.50;;;24.50;65.40;;;;;;5180887;22;20098;-81
2023/04/14 04:37:20;;;;;;;1.40;0.60;;;24.60;64.70;;;;;;5181332;22;20019;-83
2023/04/14 04:39:43;;;;;;;2.00;0.80;;;24.70;64.50;;;;;;5178658;23;20058;-78
2023/04/14 04:42:06;;;;;;;0.82;0.40;;;24.80;64.40;;;;;;5175035;23;20015;-77
2023/04/14 04:44:32;;;;;;;2.90;0.50;;;24.80;64.20;;;;;;5148493;23;20012;-85
2023/04/14 04:46:55;;;;;;;2.95;0.80;;;24.90;63.90;;;;;;5148023;23;20027;-80
2023/04/14 04:49:18;;;;;;;0.32;0.30;;;25.00;63.70;;;;;;5144524;23;20777;-79
2023/04/14 04:51:42;;;;;;;1.30;0.45;;;25.10;63.50;;;;;;5133666;23;20841;-84
2023/04/14 04:54:04;;;;;;;;;;;25.20;63.30;;;;;;5179108;22;20008;-86
2023/04/14 04:56:27;;;;;;;1.13;0.55;;;25.20;63.10;;;;;;5177495;23;20302;-78
2023/04/14 04:58:50;;;;;;;1.45;0.52;;;25.20;62.80;;;;;;5179331;22;20046;-86
2023/04/14 05:01:13;;;;;;;1.90;0.90;;;25.30;62.80;;;;;;5179812;22;20038;-78
2023/04/14 05:03:36;;;;;;;1.52;0.50;;;25.30;62.60;;;;;;5135281;23;20250;-81
2023/04/14 05:05:59;;;;;;;0.75;0.50;;;25.40;62.50;;;;;;5146443;23;20117;-80
2023/04/14 05:08:22;;;;;;;8.00;0.60;;;25.40;62.30;;;;;;5177099;22;20023;-75
2023/04/14 05:10:44;;;;;;;1.95;0.50;;;25.40;62.10;;;;;;5176082;22;20029;-78
2023/04/14 05:13:06;;;;;;;3.38;0.70;;;25.40;62.10;;;;;;5145953;23;20463;-80
2023/04/14 05:15:29;;;;;;;1.35;0.70;;;25.40;62.00;;;;;;5177395;22;20394;-82
2023/04/14 05:17:51;;;;;;;1.25;0.80;;;25.40;62.00;;;;;;5144756;23;20099;-85
2023/04/14 05:20:18;;;;;;;2.33;0.50;;;25.40;62.10;;;;;;5144322;23;20023;-83
2023/04/14 05:22:41;;;;;;;1.40;0.60;;;25.30;61.90;;;;;;5125644;23;20353;-78
2023/04/14 05:25:03;;;;;;;1.75;0.70;;;25.30;62.00;;;;;;5148114;23;20388;-78
2023/04/14 05:27:26;;;;;;;1.23;0.40;;;25.20;61.90;;;;;;5178920;22;20538;-78
2023/04/14 05:29:48;;;;;;;1.40;0.57;;;25.20;62.10;;;;;;5179159;22;20024;-80
2023/04/14 05:32:13;;;;;;;1.65;0.52;;;25.20;62.20;;;;;;5177046;23;20440;-80
2023/04/14 05:34:35;;;;;;;4.07;0.60;;;25.20;62.20;;;;;;5148208;23;20021;-81
2023/04/14 05:36:58;;;;;;;1.52;0.55;;;25.10;62.10;;;;;;5178140;23;20162;-89
2023/04/14 05:39:23;;;;;;;1.42;0.60;;;25.10;62.10;;;;;;5148304;23;20021;-80
2023/04/14 05:41:46;;;;;;;0.47;0.30;;;25.10;62.60;;;;;;5179274;23;20016;-85
2023/04/14 05:44:08;;;;;;;2.63;0.80;;;25.10;62.10;;;;;;5156098;23;20017;-80
2023/04/14 05:46:31;;;;;;;5.47;0.95;;;25.10;62.10;;;;;;5186478;23;20023;-83
2023/04/14 05:48:53;;;;;;;1.50;0.30;;;25.10;62.10;;;;;;5161834;23;20005;-82
2023/04/14 05:51:19;;;;;;;1.20;0.65;;;25.20;62.20;;;;;;5165073;22;20048;-77
2023/04/14 05:53:41;;;;;;;1.52;0.60;;;25.30;62.20;;;;;;5157260;23;20020;-80
2023/04/14 05:56:14;;;;;;;;;;;;;;;;;;;;;
2023/04/14 05:58:37;;;;;;;0.98;0.50;;;25.50;61.80;;;;;;5186198;23;20062;-79
2023/04/14 06:01:02;;;;;;;1.02;0.50;;;25.50;61.70;;;;;;5163021;23;20016;-77
2023/04/14 06:03:28;;;;;;;5.28;0.82;;;25.50;61.40;;;;;;5186675;22;20050;-80
2023/04/14 06:05:51;;;;;;;2.25;0.65;;;25.50;61.40;;;;;;5182248;22;20016;-77
2023/04/14 06:08:14;;;;;;;1.35;0.43;;;25.40;61.40;;;;;;5176848;22;20016;-77
2023/04/14 06:10:37;;;;;;;5.78;1.17;;;25.40;61.40;;;;;;5176994;22;20020;-79
2023/04/14 06:13:00;;;;;;;4.15;1.25;;;25.40;61.60;;;;;;5177542;22;20012;-77
2023/04/14 06:15:25;;;;;;;2.17;0.50;;;25.30;61.70;;;;;;5133581;23;20021;-78
2023/04/14 06:17:48;;;;;;;2.80;0.60;;;25.30;61.40;;;;;;5176286;22;20008;-78
2023/04/14 06:20:14;;;;;;;3.03;0.80;;;25.30;61.50;;;;;;5174676;22;20098;-79
2023/04/14 06:22:36;;;;;;;2.22;0.50;;;25.30;61.80;;;;;;5144363;23;20024;-79
2023/04/14 06:24:58;;;;;;;3.13;0.70;;;25.20;61.80;;;;;;5177302;22;20099;-78
2023/04/14 06:27:21;;;;;;;1.30;0.30;;;25.20;62.00;;;;;;5145344;23;20016;-78
2023/04/14 06:29:43;;;;;;;2.10;0.60;;;25.20;62.30;;;;;;5172495;23;20027;-81
2023/04/14 06:32:09;;;;;;;2.60;0.50;;;25.20;62.50;;;;;;5176695;22;20019;-83
2023/04/14 06:34:31;;;;;;;1.23;0.55;;;25.20;62.60;;;;;;5144992;23;20099;-83
2023/04/14 06:37:00;;;;;;;2.88;0.65;;;25.20;62.70;;;;;;5146940;23;20056;-82
2023/04/14 06:39:26;;;;;;;1.25;0.43;;;25.20;62.70;;;;;;5176484;23;20016;-83
2023/04/14 06:41:48;;;;;;;5.05;0.75;;;25.20;62.90;;;;;;5178430;22;20012;-81
2023/04/14 06:44:11;;;;;;;0.57;0.45;;;25.20;62.80;;;;;;5177857;23;20014;-84
2023/04/14 06:46:34;;;;;;;1.75;0.68;;;25.20;62.70;;;;;;5148044;23;20016;-84
2023/04/14 06:48:57;;;;;;;1.73;0.60;;;25.30;62.70;;;;;;5177782;23;20090;-86
2023/04/14 06:51:19;;;;;;;2.70;1.02;;;25.30;62.70;;;;;;5177130;22;20365;-82
2023/04/14 06:53:41;;;;;;;1.40;0.60;;;25.30;62.70;;;;;;5144248;23;20013;-83
2023/04/14 06:56:05;;;;;;;1.88;0.40;;;25.40;62.70;;;;;;5144743;23;20075;-79
2023/04/14 06:58:27;;;;;;;;;;;25.40;62.70;;;;;;5172254;23;20013;-78
2023/04/14 07:00:55;;;;;;;1.60;0.80;;;25.30;62.60;;;;;;5138008;23;19907;-79
2023/04/14 07:03:18;;;;;;;2.17;0.63;;;25.30;62.70;;;;;;5141895;23;20009;-81
2023/04/14 07:05:40;;;;;;;1.70;0.60;;;25.30;62.70;;;;;;5128461;23;20021;-79
2023/04/14 07:08:02;;;;;;;13.13;1.20;;;25.30;62.90;;;;;;5138514;23;20044;-80
2023/04/14 07:10:25;;;;;;;5.20;0.68;;;25.20;62.70;;;;;;5138587;23;20240;-71
2023/04/14 07:12:47;;;;;;;2.30;0.75;;;25.20;62.60;;;;;;5172443;22;20008;-71
2023/04/14 07:15:13;;;;;;;1.63;0.43;;;25.10;62.50;;;;;;5142597;22;20118;-71
2023/04/14 07:17:38;;;;;;;2.75;0.55;;;25.10;62.50;;;;;;5172044;22;20016;-71
2023/04/14 07:20:00;;;;;;;2.05;0.50;;;25.10;62.50;;;;;;5171290;22;20039;-70
2023/04/14 07:22:23;;;;;;;1.10;0.43;;;25.00;62.50;;;;;;5171207;22;20016;-70
2023/04/14 07:24:45;;;;;;;0.93;0.45;;;25.00;62.50;;;;;;5172058;22;20554;-70
2023/04/14 07:27:14;;;;;;;1.02;0.35;;;24.90;62.50;;;;;;5140531;23;20016;-71
2023/04/14 07:29:36;;;;;;;1.70;0.40;;;24.90;62.60;;;;;;5172494;22;20016;-70
2023/04/14 07:31:58;;;;;;;0.30;0.30;;;24.90;62.60;;;;;;5141138;23;20024;-70
2023/04/14 07:34:21;;;;;;;1.23;0.60;;;24.80;62.70;;;;;;5172695;22;20097;-71
2023/04/14 07:36:43;;;;;;;0.93;0.43;;;24.80;62.60;;;;;;5140791;23;20092;-71
2023/04/14 07:39:06;;;;;;;1.95;0.90;;;24.80;62.60;;;;;;5142902;23;20016;-70
2023/04/14 07:41:28;;;;;;;1.23;0.47;;;24.80;62.60;;;;;;5172513;22;20022;-71
2023/04/14 07:43:54;;;;;;;0.70;0.32;;;24.70;62.60;;;;;;5163496;23;20019;-70
2023/04/14 07:46:16;;;;;;;1.58;0.50;;;24.70;62.80;;;;;;5172561;22;20059;-69
2023/04/14 07:48:39;;;;;;;1.20;0.60;;;24.70;62.90;;;;;;5172321;23;20012;-70
2023/04/14 07:51:03;;;;;;;1.58;0.40;;;24.60;62.70;;;;;;5163736;23;20117;-71
2023/04/14 07:53:25;;;;;;;;;;;24.60;62.70;;;;;;5173609;22;20099;-70
2023/04/14 07:55:47;;;;;;;1.15;0.50;;;24.60;62.70;;;;;;5169876;23;19911;-72
2023/04/14 08:00:13;;;;;;;0.60;0.47;;;24.60;62.80;;;;;;5156298;23;20024;-60
2023/04/14 08:02:36;;;;;;;1.97;1.00;;;24.50;62.90;;;;;;5169211;22;20016;-60
2023/04/14 08:04:59;;;;;;;1.65;0.95;;;24.50;63.00;;;;;;5139999;23;20016;-61
2023/04/14 08:07:21;;;;;;;2.65;1.20;;;24.50;63.10;;;;;;5168804;23;20016;-60
2023/04/14 08:09:44;;;;;;;2.15;1.13;;;24.40;63.00;;;;;;5169337;23;20433;-61
2023/04/14 08:12:06;;;;;;;2.35;1.10;;;24.40;63.00;;;;;;5167510;23;20070;-61
2023/04/14 08:14:28;;;;;;;2.88;1.30;;;24.50;63.10;;;;;;5168508;23;20019;-60
2023/04/14 08:16:51;;;;;;;2.58;1.20;;;24.40;63.10;;;;;;5166310;23;20020;-60
2023/04/14 08:19:13;;;;;;;3.28;1.33;;;24.40;63.10;;;;;;5169765;23;20023;-61
2023/04/14 08:21:36;;;;;;;2.63;1.30;;;24.40;63.20;;;;;;5166897;23;20023;-61
2023/04/14 08:23:58;;;;;;;2.58;1.50;;;24.40;63.20;;;;;;5160112;23;20051;-61
2023/04/14 08:26:21;;;;;;;2.10;1.20;;;24.30;63.20;;;;;;5159504;23;20536;-61
2023/04/14 08:28:45;;;;;;;1.20;0.88;;;24.30;63.30;;;;;;5156636;23;20019;-61
2023/04/14 08:31:10;;;;;;;2.40;1.40;;;24.30;63.40;;;;;;5203160;22;20061;-76
2023/04/14 08:33:33;;;;;;;2.05;1.20;;;24.30;63.40;;;;;;5214832;22;20015;-74
2023/04/14 08:35:55;;;;;;;2.20;1.27;;;24.20;63.40;;;;;;5215343;22;20091;-76
2023/04/14 08:38:19;;;;;;;2.13;1.20;;;24.20;63.40;;;;;;5216713;22;20049;-77
2023/04/14 08:40:46;;;;;;;2.28;1.30;;;24.20;63.40;;;;;;5215363;22;20400;-76
2023/04/14 08:43:12;;;;;;;2.25;1.60;;;24.20;63.50;;;;;;5218531;22;20011;-76
2023/04/14 08:45:36;;;;;;;3.28;1.60;;;24.20;63.50;;;;;;5215382;22;20007;-76
2023/04/14 08:48:03;;;;;;;2.30;1.55;;;24.20;64.20;;;;;;5216420;22;20049;-76
2023/04/14 08:50:32;;;;;;;2.83;1.23;;;24.10;63.50;;;;;;5214943;22;20816;-76
2023/04/14 08:52:56;;;;;;;2.65;1.48;;;24.20;63.60;;;;;;5216924;22;20528;-75
2023/04/14 08:55:18;;;;;;;2.08;1.20;;;24.10;63.60;;;;;;5216056;22;20074;-78
2023/04/14 08:57:42;;;;;;;2.55;1.20;;;24.10;63.70;;;;;;5214548;22;20041;-79
2023/04/14 09:00:12;;;;;;;1.33;0.90;;;24.10;63.60;;;;;;5214897;22;20030;-79
2023/04/14 09:02:36;;;;;;;1.95;1.02;;;24.00;63.70;;;;;;5207615;22;20007;-78
2023/04/14 09:05:00;;;;;;;1.77;0.95;;;24.00;63.70;;;;;;5180122;22;20440;-78
2023/04/14 09:07:23;;;;;;;2.40;1.25;;;24.00;63.80;;;;;;5188097;22;20011;-78
2023/04/14 09:09:46;;;;;;;3.13;1.58;;;24.00;63.80;;;;;;5190712;22;20019;-78
2023/04/14 09:12:08;;;;;;;2.05;1.17;;;24.00;63.80;;;;;;5189552;22;20030;-78
2023/04/14 09:14:31;;;;;;;1.90;1.13;;;24.00;63.80;;;;;;5189784;22;20016;-77
2023/04/14 09:16:55;;;;;;;2.05;1.10;;;24.00;63.80;;;;;;5192288;22;20019;-76
2023/04/14 09:19:16;;;;;;;;;;;24.00;63.90;;;;;;5173999;22;20037;-77
2023/04/14 09:21:42;;;;;;;2.38;1.23;;;24.00;63.90;;;;;;5194761;22;19918;-77
2023/04/14 09:24:05;;;;;;;1.20;0.90;;;23.90;63.90;;;;;;5165308;22;20008;-77
2023/04/14 09:26:28;;;;;;;1.45;1.00;;;23.90;63.90;;;;;;5198330;22;20020;-77
2023/04/14 09:28:51;;;;;;;2.13;1.17;;;23.90;63.90;;;;;;5196023;22;20099;-78
2023/04/14 09:31:14;;;;;;;1.35;0.95;;;23.90;64.00;;;;;;5190294;22;20336;-77
2023/04/14 09:33:43;;;;;;;1.95;1.08;;;23.90;64.00;;;;;;5198010;22;20077;-77
2023/04/14 09:36:17;;;;;;;1.85;1.00;;;23.80;64.00;;;;;;5190384;22;20020;-77
2023/04/14 09:38:39;;;;;;;3.30;1.23;;;23.80;64.00;;;;;;5190154;22;20022;-77
2023/04/14 09:41:03;;;;;;;2.22;1.10;;;23.80;64.00;;;;;;5197993;22;20098;-77
2023/04/14 09:43:28;;;;;;;1.45;0.95;;;23.80;64.10;;;;;;5198567;22;20559;-77
2023/04/14 09:45:50;;;;;;;1.60;0.90;;;23.80;64.10;;;;;;5201450;22;20019;-77
2023/04/14 09:48:13;;;;;;;2.78;1.20;;;23.80;64.10;;;;;;5198059;22;20012;-76
2023/04/14 09:51:06;;;;;;;1.67;1.20;;;23.80;64.10;;;;;;5167611;22;20020;-76
2023/04/14 09:53:34;;;;;;;1.92;0.90;;;23.70;64.10;;;;;;5198983;22;20055;-77
2023/04/14 09:55:58;;;;;;;2.05;0.85;;;23.70;64.10;;;;;;5198611;22;20076;-78
2023/04/14 09:58:21;;;;;;;1.45;1.23;;;23.70;64.10;;;;;;5200541;22;20015;-78
2023/04/14 10:00:45;;;;;;;1.98;1.13;;;23.70;64.10;;;;;;5197791;22;20308;-78
2023/04/14 10:03:07;;;;;;;2.65;1.20;;;23.70;64.10;;;;;;5197378;22;20149;-77
2023/04/14 10:05:33;;;;;;;1.67;1.13;;;23.60;64.10;;;;;;5167206;22;20012;-77
2023/04/14 10:07:55;;;;;;;1.98;1.00;;;23.70;64.20;;;;;;5197703;22;20011;-78
2023/04/14 10:10:18;;;;;;;2.40;1.02;;;23.60;64.20;;;;;;5199590;22;20020;-77
2023/04/14 10:12:45;;;;;;;1.30;0.75;;;23.60;64.20;;;;;;5196485;22;20015;-77
2023/04/14 10:15:09;;;;;;;2.85;1.17;;;23.60;64.20;;;;;;5169227;22;20012;-76
2023/04/14 10:17:31;;;;;;;2.53;1.05;;;23.60;64.20;;;;;;5201486;22;20011;-77
2023/04/14 10:19:54;;;;;;;1.30;0.85;;;23.60;64.30;;;;;;5199060;22;20070;-71
2023/04/14 10:22:17;;;;;;;1.77;1.15;;;23.60;64.20;;;;;;5185567;22;20026;-72
2023/04/14 10:24:40;;;;;;;2.60;1.00;;;23.60;64.20;;;;;;5167454;22;20364;-73
2023/04/14 10:27:04;;;;;;;2.10;1.02;;;23.60;63.70;;;;;;5166458;22;20436;-72
2023/04/14 10:29:26;;;;;;;2.45;0.82;;;23.50;64.20;;;;;;5197986;22;20019;-73
2023/04/14 10:31:53;;;;;;;1.85;0.85;;;23.50;64.20;;;;;;5196773;22;20030;-74
2023/04/14 10:34:16;;;;;;;1.65;0.90;;;23.50;64.20;;;;;;5185910;22;20019;-74
2023/04/14 10:36:40;;;;;;;1.38;0.90;;;23.50;64.30;;;;;;5169073;22;20023;-73
2023/04/14 10:39:06;;;;;;;2.42;1.17;;;23.50;64.30;;;;;;5189479;22;20016;-73
2023/04/14 10:41:48;;;;;;;2.08;1.00;;;23.50;64.30;;;;;;5199598;22;20016;-73
2023/04/14 10:44:27;;;;;;;1.33;0.90;;;23.50;64.30;;;;;;5197672;22;20016;-73
2023/04/14 10:46:50;;;;;;;2.47;0.98;;;23.40;64.30;;;;;;5198909;22;20066;-70
2023/04/14 10:49:13;;;;;;;1.60;0.88;;;23.40;64.30;;;;;;5200853;22;20019;-71
2023/04/14 10:51:36;;;;;;;2.33;0.85;;;23.40;64.30;;;;;;5197377;22;20034;-71
2023/04/14 10:54:03;;;;;;;2.00;1.17;;;23.40;64.30;;;;;;5195058;22;20074;-73
2023/04/14 10:56:25;;;;;;;1.85;0.95;;;23.40;64.30;;;;;;5196555;22;20097;-70
2023/04/14 10:58:58;;;;;;;1.95;1.00;;;23.40;64.30;;;;;;5198080;22;20023;-71
2023/04/14 11:01:27;;;;;;;1.88;1.08;;;23.30;64.30;;;;;;5197926;22;20012;-71
2023/04/14 11:03:50;;;;;;;1.10;0.80;;;23.30;64.30;;;;;;5197435;22;20043;-72
2023/04/14 11:06:12;;;;;;;0.82;0.60;;;23.30;64.30;;;;;;5198921;22;20100;-72
2023/04/14 11:08:35;;;;;;;0.88;0.80;;;23.30;64.40;;;;;;5165392;22;20059;-72
2023/04/14 11:11:06;;;;;;;1.10;0.90;;;23.30;64.40;;;;;;5168191;22;20024;-72
2023/04/14 11:13:29;;;;;;;2.03;0.90;;;23.30;64.50;;;;;;5197145;22;20022;-73
2023/04/14 11:16:06;;;;;;;1.75;1.17;;;23.30;64.50;;;;;;5198020;22;20016;-73
2023/04/14 11:18:28;;;;;;;2.35;0.88;;;23.20;64.40;;;;;;5199944;22;20015;-73
2023/04/14 11:20:52;;;;;;;1.40;0.77;;;23.20;64.50;;;;;;5197595;22;20089;-72
2023/04/14 11:23:18;;;;;;;1.05;0.60;;;23.20;64.50;;;;;;5198193;22;20027;-73
2023/04/14 11:25:40;;;;;;;1.15;0.73;;;23.20;64.60;;;;;;5197259;22;20011;-72
2023/04/14 11:28:03;;;;;;;1.98;1.00;;;23.20;64.50;;;;;;5196981;22;20015;-72
2023/04/14 11:30:26;;;;;;;1.20;0.90;;;23.20;64.50;;;;;;5197181;22;20030;-73
2023/04/14 11:32:56;;;;;;;1.65;0.73;;;23.20;64.50;;;;;;5196615;22;20019;-74
2023/04/14 11:35:20;;;;;;;1.33;0.77;;;23.10;64.50;;;;;;5197639;22;20022;-72
2023/04/14 11:37:43;;;;;;;1.38;0.75;;;23.10;64.00;;;;;;5186957;22;20493;-72
2023/04/14 11:40:08;;;;;;;1.15;0.80;;;23.10;64.50;;;;;;5197560;22;20744;-72
2023/04/14 11:42:32;;;;;;;1.63;0.68;;;23.10;64.50;;;;;;5197614;22;20016;-71
2023/04/14 11:44:58;;;;;;;1.08;0.80;;;23.10;64.50;;;;;;5200414;22;20016;-73
2023/04/14 11:47:24;;;;;;;1.30;0.70;;;23.10;64.00;;;;;;5197250;22;20012;-72
2023/04/14 11:49:47;;;;;;;0.95;0.65;;;23.10;64.60;;;;;;5196727;22;20016;-72
2023/04/14 11:52:09;;;;;;;1.55;0.88;;;23.00;64.50;;;;;;5197877;22;20024;-73
2023/04/14 11:54:36;;;;;;;1.35;0.90;;;23.00;64.50;;;;;;5166085;22;20020;-73
2023/04/14 11:56:59;;;;;;;1.77;0.90;;;23.00;64.60;;;;;;5200281;22;20026;-73
2023/04/14 11:59:21;;;;;;;1.80;0.90;;;23.00;64.60;;;;;;5197198;22;20012;-74
2023/04/14 12:01:50;;;;;;;1.80;1.02;;;23.00;64.60;;;;;;5197652;22;20320;-74
2023/04/14 12:04:12;;;;;;;1.85;0.90;;;23.00;64.60;;;;;;5196260;22;20011;-74
2023/04/14 12:06:37;;;;;;;1.05;0.60;;;23.00;64.60;;;;;;5197067;22;20015;-74
2023/04/14 12:09:02;;;;;;;0.85;0.70;;;23.00;64.50;;;;;;5167340;22;20023;-75
2023/04/14 12:11:25;;;;;;;1.10;0.80;;;23.00;64.50;;;;;;5198195;22;20027;-75
2023/04/14 12:13:49;;;;;;;1.98;0.88;;;22.90;64.40;;;;;;5197576;22;20390;-75
2023/04/14 12:16:12;;;;;;;1.02;0.57;;;22.90;64.40;;;;;;5199572;22;20498;-75
2023/04/14 12:18:34;;;;;;;1.30;0.83;;;22.90;64.50;;;;;;5197899;22;20359;-74
2023/04/14 12:21:02;;;;;;;1.95;0.75;;;22.90;64.40;;;;;;5200493;22;20439;-73
2023/04/14 12:23:25;;;;;;;0.88;0.60;;;22.90;64.40;;;;;;5188951;22;20014;-72
2023/04/14 12:25:51;;;;;;;1.60;0.70;;;22.90;64.40;;;;;;5196619;22;20011;-73
2023/04/14 12:28:26;;;;;;;1.77;0.85;;;22.90;64.50;;;;;;5197040;22;20016;-73
2023/04/14 12:30:53;;;;;;;0.60;0.52;;;22.90;64.50;;;;;;5200153;22;20074;-74
2023/04/14 12:33:15;;;;;;;0.93;0.73;;;22.80;64.50;;;;;;5189047;22;20094;-74
2023/04/14 12:35:39;;;;;;;1.35;0.70;;;22.80;64.40;;;;;;5165648;22;20099;-72
2023/04/14 12:38:12;;;;;;;0.70;0.70;;;22.80;64.40;;;;;;5166131;22;20024;-73
2023/04/14 12:40:42;;;;;;;1.15;0.70;;;22.80;64.40;;;;;;5196843;22;20067;-72